createdAt,value
2019-05-09T00:01:55.269Z,7.17
2019-05-09T00:04:28.073Z,7.13
2019-05-09T00:06:58.717Z,7.08
2019-05-09T00:09:30.654Z,7.01
2019-05-09T00:12:03.550Z,6.98
2019-05-09T00:14:38.311Z,6.94
2019-05-09T00:17:10.112Z,6.92
2019-05-09T00:19:41.057Z,6.92
2019-05-09T00:22:13.740Z,6.89
2019-05-09T00:24:44.908Z,6.90
2019-05-09T00:27:16.228Z,6.83
2019-05-09T00:29:49.203Z,6.75
2019-05-09T00:32:33.891Z,6.71
2019-05-09T00:35:29.405Z,6.72
2019-05-09T01:03:04.300Z,6.02
2019-05-09T01:05:35.986Z,6.06
2019-05-09T01:08:07.301Z,6.15
2019-05-09T01:10:38.455Z,6.11
2019-05-09T01:13:09.711Z,6.11
2019-05-09T01:15:40.814Z,6.09
2019-05-09T01:18:14.311Z,6.08
2019-05-09T01:20:46.107Z,5.97
2019-05-09T01:23:17.124Z,5.77
2019-05-09T01:25:48.740Z,5.80
2019-05-09T01:28:19.708Z,5.74
2019-05-09T01:30:53.085Z,5.78
2019-05-09T01:33:53.409Z,5.85
2019-05-09T01:36:48.215Z,5.81
2019-05-09T01:39:19.603Z,5.87
2019-05-09T01:41:53.164Z,5.80
2019-05-09T01:44:24.630Z,5.85
2019-05-09T01:46:55.782Z,5.87
2019-05-09T01:49:27.469Z,5.72
2019-05-09T01:52:13.781Z,5.68
2019-05-09T01:54:47.108Z,5.73
2019-05-09T01:57:18.800Z,5.69
2019-05-09T01:59:50.080Z,5.66
2019-05-09T02:02:23.411Z,5.65
2019-05-09T02:04:54.377Z,5.67
2019-05-09T02:07:25.380Z,5.70
2019-05-09T02:09:56.748Z,5.79
2019-05-09T02:12:28.093Z,5.82
2019-05-09T02:15:08.799Z,5.75
2019-05-09T02:18:05.121Z,5.68
2019-05-09T02:20:35.826Z,5.67
2019-05-09T02:23:07.592Z,5.62
2019-05-09T02:25:38.534Z,5.62
2019-05-09T02:28:09.616Z,5.57
2019-05-09T02:30:40.590Z,5.45
2019-05-09T02:33:14.376Z,5.37
2019-05-09T02:35:55.758Z,5.44
2019-05-09T02:38:19.723Z,5.50
2019-05-09T02:40:49.411Z,5.43
2019-05-09T02:43:22.496Z,5.40
2019-05-09T02:45:59.936Z,5.38
2019-05-09T02:48:30.880Z,5.38
2019-05-09T02:51:02.788Z,5.41
2019-05-09T02:53:34.686Z,5.49
2019-05-09T02:56:13.466Z,5.47
2019-05-09T02:58:52.055Z,5.74
2019-05-09T03:01:39.170Z,5.94
2019-05-09T03:04:11.038Z,5.97
2019-05-09T03:06:42.346Z,5.97
2019-05-09T03:09:14.797Z,5.92
2019-05-09T03:11:48.496Z,5.89
2019-05-09T03:14:19.590Z,5.91
2019-05-09T03:16:51.326Z,6.01
2019-05-09T03:19:22.728Z,6.05
2019-05-09T03:21:58.684Z,6.15
2019-05-09T03:24:30.946Z,6.21
2019-05-09T03:27:08.551Z,6.31
2019-05-09T03:29:48.839Z,6.43
2019-05-09T03:32:19.738Z,6.55
2019-05-09T03:34:51.802Z,6.64
2019-05-09T03:37:23.294Z,6.60
2019-05-09T03:39:54.461Z,6.62
2019-05-09T03:42:38.084Z,6.62
2019-05-09T03:44:59.422Z,6.55
2019-05-09T03:47:47.845Z,6.37
2019-05-09T03:50:18.952Z,6.31
2019-05-09T03:52:50.503Z,6.22
2019-05-09T03:55:31.276Z,6.16
2019-05-09T03:58:11.914Z,6.10
2019-05-09T04:00:43.259Z,6.11
2019-05-09T04:03:14.944Z,6.15
2019-05-09T04:05:56.633Z,6.45
2019-05-09T04:08:20.080Z,6.48
2019-05-09T04:10:52.842Z,6.30
2019-05-09T04:13:28.449Z,6.17
2019-05-09T04:16:00.971Z,6.18
2019-05-09T04:18:32.017Z,6.23
2019-05-09T04:21:12.987Z,6.17
2019-05-09T04:23:44.336Z,6.22
2019-05-09T04:26:22.936Z,6.20
2019-05-09T04:28:54.309Z,6.17
2019-05-09T04:31:25.370Z,6.09
2019-05-09T04:33:57.436Z,6.10
2019-05-09T04:36:41.045Z,6.15
2019-05-09T04:39:17.342Z,6.30
2019-05-09T04:41:48.757Z,6.28
2019-05-09T04:44:57.574Z,6.43
2019-05-09T04:47:27.820Z,6.84
2019-05-09T04:49:59.827Z,7.16
2019-05-09T04:52:31.114Z,7.41
2019-05-09T04:55:18.358Z,7.69
2019-05-09T04:57:50.507Z,7.83
2019-05-09T05:00:27.606Z,7.95
2019-05-09T05:02:59.308Z,8.64
2019-05-09T05:05:30.393Z,8.82
2019-05-09T05:08:02.147Z,9.54
2019-05-09T05:10:33.198Z,10.94
2019-05-09T05:13:03.958Z,10.95
2019-05-09T05:15:37.685Z,12.05
2019-05-09T05:18:08.850Z,13.42
2019-05-09T05:20:40.141Z,15.10
2019-05-09T05:23:18.252Z,16.39
2019-05-09T05:25:49.949Z,17.77
2019-05-09T05:28:21.928Z,18.27
2019-05-09T05:30:53.398Z,19.22
2019-05-09T05:33:38.221Z,20.03
2019-05-09T05:36:10.472Z,20.65
2019-05-09T05:38:42.240Z,20.53
2019-05-09T05:41:13.831Z,18.63
2019-05-09T05:43:45.068Z,19.60
2019-05-09T05:46:37.903Z,19.24
2019-05-09T05:49:08.957Z,20.08
2019-05-09T05:51:49.567Z,20.25
2019-05-09T05:54:24.547Z,20.36
2019-05-09T05:56:57.805Z,19.19
2019-05-09T05:59:30.054Z,20.11
2019-05-09T06:02:01.202Z,17.59
2019-05-09T06:04:32.569Z,17.46
2019-05-09T06:07:03.908Z,16.05
2019-05-09T06:09:35.040Z,15.52
2019-05-09T06:12:08.262Z,15.94
2019-05-09T06:14:39.875Z,16.26
2019-05-09T06:17:11.535Z,16.92
2019-05-09T06:19:43.056Z,17.75
2019-05-09T06:22:13.805Z,19.29
2019-05-09T06:24:47.862Z,19.10
2019-05-09T06:27:23.738Z,19.79
2019-05-09T06:30:03.209Z,18.37
2019-05-09T06:32:35.023Z,19.36
2019-05-09T06:35:08.167Z,20.88
2019-05-09T06:37:47.718Z,19.00
2019-05-09T06:40:22.318Z,17.41
2019-05-09T06:42:53.859Z,15.78
2019-05-09T06:45:43.072Z,15.01
2019-05-09T06:48:14.695Z,13.63
2019-05-09T06:50:48.343Z,12.83
2019-05-09T06:53:19.420Z,11.97
2019-05-09T06:55:50.618Z,12.24
2019-05-09T06:58:31.762Z,12.66
2019-05-09T07:03:54.015Z,13.44
2019-05-09T07:06:41.563Z,14.68
2019-05-09T07:09:38.932Z,16.09
2019-05-09T07:12:10.073Z,16.67
2019-05-09T07:14:42.043Z,18.36
2019-05-09T07:17:14.413Z,19.44
2019-05-09T07:19:45.188Z,18.77
2019-05-09T07:22:30.508Z,17.82
2019-05-09T07:25:15.029Z,14.50
2019-05-09T07:27:48.280Z,14.61
2019-05-09T07:30:30.163Z,15.41
2019-05-09T07:33:14.390Z,13.98
2019-05-09T07:35:47.581Z,14.11
2019-05-09T07:38:28.592Z,13.38
2019-05-09T07:41:00.402Z,13.77
2019-05-09T07:43:33.426Z,14.52
2019-05-09T07:46:33.083Z,15.82
2019-05-09T07:49:08.559Z,16.32
2019-05-09T07:51:40.437Z,16.11
2019-05-09T07:54:21.958Z,16.26
2019-05-09T07:56:45.580Z,16.36
2019-05-09T07:59:18.088Z,16.92
2019-05-09T08:01:50.132Z,16.29
2019-05-09T08:04:21.779Z,15.48
2019-05-09T08:06:53.169Z,15.39
2019-05-09T08:09:27.927Z,13.95
2019-05-09T08:11:58.972Z,13.97
2019-05-09T08:14:30.319Z,12.68
2019-05-09T08:17:02.256Z,11.98
2019-05-09T08:19:33.982Z,11.59
2019-05-09T08:22:07.758Z,11.28
2019-05-09T08:24:38.412Z,11.50
2019-05-09T08:27:09.136Z,11.34
2019-05-09T08:29:40.501Z,11.17
2019-05-09T08:32:11.558Z,11.03
2019-05-09T08:34:42.887Z,10.91
2019-05-09T08:37:14.306Z,10.85
2019-05-09T08:39:48.234Z,10.77
2019-05-09T08:42:20.140Z,11.05
2019-05-09T08:44:58.671Z,11.03
2019-05-09T08:47:30.496Z,11.15
2019-05-09T08:50:28.111Z,11.14
2019-05-09T08:52:58.871Z,11.48
2019-05-09T08:55:29.637Z,11.55
2019-05-09T08:58:01.668Z,12.04
2019-05-09T09:00:33.180Z,12.09
2019-05-09T09:03:04.930Z,12.04
2019-05-09T09:05:43.164Z,12.40
2019-05-09T09:08:13.099Z,12.17
2019-05-09T09:10:44.545Z,11.77
2019-05-09T09:13:17.539Z,11.52
2019-05-09T09:16:10.532Z,11.82
2019-05-09T09:18:22.193Z,11.68
2019-05-09T09:20:53.451Z,12.06
2019-05-09T09:23:42.343Z,12.18
2019-05-09T09:25:58.452Z,12.65
2019-05-09T09:28:29.822Z,12.63
2019-05-09T09:31:01.138Z,13.21
2019-05-09T09:33:32.230Z,13.10
2019-05-09T09:36:03.229Z,12.90
2019-05-09T09:38:34.718Z,13.34
2019-05-09T09:41:07.602Z,14.83
2019-05-09T09:43:38.499Z,15.38
2019-05-09T09:46:14.397Z,14.88
2019-05-09T09:48:42.459Z,13.83
2019-05-09T09:51:13.702Z,14.43
2019-05-09T09:53:45.082Z,14.02
2019-05-09T09:56:17.830Z,14.25
2019-05-09T09:58:57.564Z,14.95
2019-05-09T10:01:30.039Z,14.63
2019-05-09T10:04:28.216Z,15.47
2019-05-09T10:06:59.806Z,16.42
2019-05-09T10:09:33.260Z,18.90
2019-05-09T10:12:04.205Z,19.80
2019-05-09T10:14:39.771Z,21.14
2019-05-09T10:17:28.415Z,22.78
2019-05-09T10:20:04.749Z,22.31
2019-05-09T10:22:44.742Z,23.19
2019-05-09T10:25:08.315Z,22.02
2019-05-09T10:27:39.751Z,21.17
2019-05-09T10:30:10.903Z,21.44
2019-05-09T10:32:47.652Z,20.83
2019-05-09T10:35:24.466Z,22.06
2019-05-09T10:37:58.658Z,21.17
2019-05-09T10:40:28.305Z,20.83
2019-05-09T10:43:30.696Z,20.33
2019-05-09T10:46:19.309Z,23.08
2019-05-09T10:49:03.277Z,24.25
2019-05-09T10:51:34.868Z,24.33
2019-05-09T10:54:07.893Z,23.84
2019-05-09T10:56:38.799Z,22.04
2019-05-09T10:59:09.769Z,20.54
2019-05-09T11:01:41.523Z,19.73
2019-05-09T11:04:13.334Z,17.73
2019-05-09T11:06:44.383Z,18.49
2019-05-09T11:09:18.015Z,18.46
2019-05-09T11:11:48.961Z,18.02
2019-05-09T11:14:32.532Z,18.06
2019-05-09T11:17:06.700Z,18.41
2019-05-09T11:19:28.776Z,17.92
2019-05-09T11:22:08.109Z,19.73
2019-05-09T11:24:46.169Z,20.37
2019-05-09T11:27:12.298Z,19.66
2019-05-09T11:29:47.497Z,18.92
2019-05-09T11:32:18.458Z,18.93
2019-05-09T11:34:49.709Z,18.69
2019-05-09T11:37:22.199Z,18.88
2019-05-09T11:39:53.447Z,20.98
2019-05-09T11:42:25.467Z,19.49
2019-05-09T11:44:57.999Z,18.95
2019-05-09T11:47:38.257Z,18.02
2019-05-09T11:50:01.914Z,18.36
2019-05-09T11:52:33.270Z,19.08
2019-05-09T11:55:07.701Z,21.47
2019-05-09T11:57:38.710Z,22.76
2019-05-09T12:00:10.771Z,21.57
2019-05-09T12:02:42.136Z,20.61
2019-05-09T12:05:13.103Z,18.85
2019-05-09T12:07:44.120Z,18.85
2019-05-09T12:10:15.284Z,18.32
2019-05-09T12:12:47.793Z,18.90
2019-05-09T12:15:18.763Z,18.42
2019-05-09T12:17:57.861Z,19.82
2019-05-09T12:20:22.886Z,19.83
2019-05-09T12:22:54.526Z,20.01
2019-05-09T12:25:28.368Z,20.36
2019-05-09T12:27:58.782Z,20.97
2019-05-09T12:30:29.870Z,20.85
2019-05-09T12:33:05.130Z,20.43
2019-05-09T12:35:38.566Z,21.37
2019-05-09T12:38:09.205Z,20.43
2019-05-09T12:40:40.238Z,20.44
2019-05-09T12:43:11.183Z,21.90
2019-05-09T12:45:42.931Z,20.94
2019-05-09T12:48:15.802Z,20.90
2019-05-09T12:50:48.879Z,21.13
2019-05-09T12:53:22.465Z,21.09
2019-05-09T12:56:00.363Z,21.70
2019-05-09T12:58:31.543Z,20.92
2019-05-09T13:01:02.140Z,21.89
2019-05-09T13:03:33.725Z,21.35
2019-05-09T13:06:04.817Z,21.05
2019-05-09T13:08:35.806Z,21.02
2019-05-09T13:11:08.027Z,21.26
2019-05-09T13:13:41.307Z,21.87
2019-05-09T13:16:50.797Z,20.44
2019-05-09T13:19:19.117Z,21.47
2019-05-09T13:21:50.455Z,22.31
2019-05-09T13:24:22.338Z,21.20
2019-05-09T13:26:53.829Z,22.77
2019-05-09T13:29:25.494Z,22.06
2019-05-09T13:31:57.753Z,21.47
2019-05-09T13:34:29.558Z,19.22
2019-05-09T13:37:01.032Z,18.79
2019-05-09T13:39:32.581Z,20.30
2019-05-09T13:42:03.409Z,21.00
2019-05-09T13:44:34.530Z,20.81
2019-05-09T13:47:06.126Z,20.89
2019-05-09T13:49:39.637Z,22.48
2019-05-09T13:52:10.436Z,21.85
2019-05-09T13:54:41.785Z,21.88
2019-05-09T13:57:15.579Z,22.03
2019-05-09T13:59:48.567Z,21.46
2019-05-09T14:02:19.835Z,21.80
2019-05-09T14:04:50.477Z,20.57
2019-05-09T14:07:21.912Z,19.16
2019-05-09T14:09:53.191Z,19.09
2019-05-09T14:12:38.175Z,19.37
2019-05-09T14:15:08.712Z,20.62
2019-05-09T14:17:49.270Z,22.45
2019-05-09T14:20:12.463Z,21.67
2019-05-09T14:22:43.904Z,21.51
2019-05-09T14:25:15.511Z,22.79
2019-05-09T14:27:49.722Z,22.62
2019-05-09T14:30:20.080Z,20.54
2019-05-09T14:32:51.257Z,20.81
2019-05-09T14:35:22.372Z,21.08
2019-05-09T14:37:54.039Z,21.34
2019-05-09T14:40:24.704Z,21.08
2019-05-09T14:42:57.782Z,21.40
2019-05-09T14:45:28.500Z,21.61
2019-05-09T14:48:03.634Z,21.25
2019-05-09T14:50:41.270Z,18.91
2019-05-09T14:53:15.084Z,17.66
2019-05-09T14:55:50.063Z,17.16
2019-05-09T14:58:24.815Z,16.84
2019-05-09T15:01:00.562Z,16.34
2019-05-09T15:03:29.527Z,15.55
2019-05-09T15:06:00.581Z,15.50
2019-05-09T15:08:31.712Z,15.21
2019-05-09T15:11:03.278Z,15.46
2019-05-09T15:13:53.568Z,15.06
2019-05-09T15:16:24.207Z,16.57
2019-05-09T15:18:54.850Z,18.16
2019-05-09T15:21:25.971Z,18.42
2019-05-09T15:24:05.094Z,19.43
2019-05-09T15:26:41.262Z,18.64
2019-05-09T15:29:23.162Z,19.71
2019-05-09T15:31:55.363Z,19.46
2019-05-09T15:34:28.529Z,20.64
2019-05-09T15:37:03.455Z,20.70
2019-05-09T15:39:38.310Z,21.73
2019-05-09T15:42:14.200Z,19.17
2019-05-09T15:44:54.045Z,17.72
2019-05-09T15:47:39.262Z,18.50
2019-05-09T15:50:23.613Z,18.63
2019-05-09T15:53:03.380Z,18.89
2019-05-09T15:55:34.725Z,19.94
2019-05-09T15:58:06.578Z,20.03
2019-05-09T16:00:38.607Z,18.23
2019-05-09T16:03:10.275Z,18.54
2019-05-09T16:05:41.836Z,18.76
2019-05-09T16:08:13.814Z,19.88
2019-05-09T16:10:45.374Z,20.27
2019-05-09T16:13:17.700Z,18.90
2019-05-09T16:15:49.873Z,18.10
2019-05-09T16:18:21.402Z,17.68
2019-05-09T16:20:53.320Z,16.88
2019-05-09T16:23:24.675Z,16.68
2019-05-09T16:25:58.375Z,17.08
2019-05-09T16:28:28.277Z,16.70
2019-05-09T16:30:59.565Z,18.24
2019-05-09T16:33:31.618Z,18.57
2019-05-09T16:36:02.719Z,18.70
2019-05-09T16:38:43.047Z,18.97
2019-05-09T16:41:07.717Z,19.92
2019-05-09T16:43:39.358Z,19.87
2019-05-09T16:46:10.363Z,18.98
2019-05-09T16:48:42.014Z,16.68
2019-05-09T16:51:13.947Z,17.06
2019-05-09T16:53:49.514Z,17.22
2019-05-09T16:56:18.294Z,17.80
2019-05-09T16:58:48.980Z,16.44
2019-05-09T17:01:19.954Z,15.80
2019-05-09T17:03:51.023Z,15.54
2019-05-09T17:06:21.653Z,15.23
2019-05-09T17:08:52.431Z,15.03
2019-05-09T17:11:24.115Z,15.06
2019-05-09T17:13:55.388Z,15.11
2019-05-09T17:16:28.455Z,14.97
2019-05-09T17:18:59.637Z,14.96
2019-05-09T17:21:43.676Z,14.80
2019-05-09T17:24:17.506Z,14.24
2019-05-09T17:26:49.136Z,13.73
2019-05-09T17:29:20.387Z,13.25
2019-05-09T17:31:52.221Z,12.87
2019-05-09T17:34:23.503Z,12.65
2019-05-09T17:36:54.935Z,12.68
2019-05-09T17:39:27.794Z,12.78
2019-05-09T17:41:59.271Z,12.68
2019-05-09T17:44:30.940Z,12.41
2019-05-09T17:47:02.602Z,12.26
2019-05-09T17:49:34.641Z,12.18
2019-05-09T17:52:07.553Z,12.17
2019-05-09T17:54:39.144Z,12.17
2019-05-09T17:57:11.024Z,12.21
2019-05-09T17:59:42.002Z,12.19
2019-05-09T18:02:13.563Z,12.16
2019-05-09T18:04:47.763Z,12.05
2019-05-09T18:07:21.053Z,11.92
2019-05-09T18:09:52.100Z,11.93
2019-05-09T18:12:27.759Z,11.91
2019-05-09T18:14:59.995Z,11.89
2019-05-09T18:17:31.866Z,11.86
2019-05-09T18:20:04.993Z,11.87
2019-05-09T18:22:36.560Z,11.89
2019-05-09T18:25:11.304Z,11.86
2019-05-09T18:27:50.538Z,11.84
2019-05-09T18:30:24.803Z,11.85
2019-05-09T18:33:07.588Z,11.84
2019-05-09T18:35:40.876Z,11.82
2019-05-09T18:38:24.274Z,11.88
2019-05-09T18:40:59.160Z,11.87
2019-05-09T18:43:32.409Z,11.86
2019-05-09T18:46:05.125Z,11.84
2019-05-09T18:48:40.790Z,11.82
2019-05-09T18:51:13.483Z,11.73
2019-05-09T18:53:53.200Z,11.72
2019-05-09T18:56:30.088Z,11.65
2019-05-09T18:59:08.957Z,11.60
2019-05-09T19:01:45.149Z,11.60
2019-05-09T19:04:17.556Z,11.58
2019-05-09T19:06:56.390Z,11.51
2019-05-09T19:09:37.954Z,11.56
2019-05-09T19:12:16.678Z,11.42
2019-05-09T19:14:49.337Z,11.43
2019-05-09T19:17:38.618Z,11.38
2019-05-09T19:20:20.405Z,11.39
2019-05-09T19:22:52.005Z,11.37
2019-05-09T19:25:23.518Z,11.42
2019-05-09T19:27:58.579Z,11.37
2019-05-09T19:30:34.653Z,11.35
2019-05-09T19:33:27.695Z,11.31
2019-05-09T19:36:03.193Z,11.19
2019-05-09T19:38:40.615Z,11.15
2019-05-09T19:41:15.407Z,11.18
2019-05-09T19:43:46.886Z,11.19
2019-05-09T19:46:18.749Z,11.17
2019-05-09T19:48:49.669Z,11.17
2019-05-09T19:51:21.953Z,11.10
2019-05-09T19:53:53.408Z,11.08
2019-05-09T19:56:26.864Z,11.02
2019-05-09T19:58:57.368Z,11.02
2019-05-09T20:01:28.551Z,11.02
2019-05-09T20:04:07.992Z,11.07
2019-05-09T20:06:38.682Z,11.07
2019-05-09T20:09:16.360Z,11.08
2019-05-09T20:11:57.238Z,11.11
2019-05-09T20:14:36.875Z,11.16
2019-05-09T20:17:11.297Z,11.22
2019-05-09T20:19:47.766Z,11.29
2019-05-09T20:22:19.965Z,11.36
2019-05-09T20:24:52.454Z,11.41
2019-05-09T20:27:25.652Z,11.38
2019-05-09T20:30:01.586Z,11.48
2019-05-09T20:32:33.691Z,11.57
2019-05-09T20:35:05.798Z,11.50
2019-05-09T20:37:36.443Z,11.44
2019-05-09T20:40:12.462Z,11.40
2019-05-09T20:42:51.356Z,11.40
2019-05-09T20:45:25.068Z,11.45
2019-05-09T20:47:56.965Z,11.53
2019-05-09T20:50:31.284Z,11.41
2019-05-09T20:53:09.649Z,11.46
2019-05-09T20:55:36.035Z,11.63
2019-05-09T20:58:13.874Z,11.63
2019-05-09T21:00:45.356Z,11.65
2019-05-09T21:03:16.528Z,11.66
2019-05-09T21:05:48.403Z,11.44
2019-05-09T21:08:20.283Z,11.51
2019-05-09T21:10:51.725Z,11.54
2019-05-09T21:13:22.931Z,11.46
2019-05-09T21:15:54.347Z,11.32
2019-05-09T21:18:26.993Z,11.33
2019-05-09T21:20:58.359Z,11.25
2019-05-09T21:23:38.217Z,11.32
2019-05-09T21:26:09.706Z,11.33
2019-05-09T21:28:41.199Z,11.39
2019-05-09T21:31:12.261Z,11.51
2019-05-09T21:33:43.735Z,11.40
2019-05-09T21:36:14.664Z,11.36
2019-05-09T21:38:45.743Z,11.25
2019-05-09T21:41:24.130Z,11.27
2019-05-09T21:43:55.599Z,11.21
2019-05-09T21:46:27.190Z,11.28
2019-05-09T21:48:58.554Z,11.18
2019-05-09T21:51:29.055Z,11.17
2019-05-09T21:54:00.755Z,11.24
2019-05-09T21:56:31.827Z,11.27
2019-05-09T21:59:03.478Z,11.32
2019-05-09T22:01:36.875Z,11.34
2019-05-09T22:04:08.535Z,11.30
2019-05-09T22:06:40.544Z,11.26
2019-05-09T22:09:12.090Z,11.22
2019-05-09T22:11:44.109Z,11.22
2019-05-09T22:14:14.799Z,11.13
2019-05-09T22:16:46.384Z,11.09
2019-05-09T22:19:17.734Z,11.00
2019-05-09T22:21:49.380Z,11.00
2019-05-09T22:24:21.058Z,10.92
2019-05-09T22:26:53.062Z,10.84
2019-05-09T22:29:23.823Z,10.89
2019-05-09T22:31:55.269Z,10.87
2019-05-09T22:34:26.531Z,10.91
2019-05-09T22:37:02.588Z,10.99
2019-05-09T22:39:34.244Z,11.02
2019-05-09T22:42:05.895Z,10.93
2019-05-09T22:44:37.249Z,10.83
2019-05-09T22:47:08.189Z,10.81
2019-05-09T22:49:39.854Z,10.90
2019-05-09T22:52:10.874Z,10.96
2019-05-09T22:54:42.434Z,10.91
2019-05-09T22:57:19.826Z,10.99
2019-05-09T22:59:51.436Z,10.95
2019-05-09T23:02:22.691Z,10.96
2019-05-09T23:04:54.384Z,11.08
2019-05-09T23:07:25.983Z,11.00
2019-05-09T23:09:57.885Z,11.04
2019-05-09T23:12:28.854Z,11.04
2019-05-09T23:15:00.448Z,11.11
2019-05-09T23:17:31.515Z,11.01
2019-05-09T23:20:04.161Z,10.97
2019-05-09T23:22:35.775Z,11.03
2019-05-09T23:25:07.515Z,11.12
2019-05-09T23:27:40.912Z,11.20
2019-05-09T23:30:13.592Z,11.29
2019-05-09T23:32:46.070Z,11.23
2019-05-09T23:35:17.360Z,11.10
2019-05-09T23:37:48.627Z,11.13
2019-05-09T23:40:19.954Z,11.07
2019-05-09T23:42:51.065Z,11.10
2019-05-09T23:45:21.727Z,11.10
2019-05-09T23:47:53.445Z,11.15
2019-05-09T23:50:24.770Z,11.25
2019-05-09T23:52:56.416Z,11.25
2019-05-09T23:55:48.265Z,11.14
2019-05-09T23:58:37.653Z,11.08
